sensor_id;sensor_type;location;lat;lon;timestamp;pressure;altitude;pressure_sealevel;temperature;humidity
21980;BME280;11154;48.558;9.234;2022-12-10T00:00:34;96254.22;;;12.72;53.40
21980;BME280;11154;48.558;9.234;2022-12-10T00:02:35;96249.69;;;12.85;52.72
21980;BME280;11154;48.558;9.234;2022-12-10T00:04:37;96250.56;;;12.98;51.94
21980;BME280;11154;48.558;9.234;2022-12-10T00:06:39;96251.97;;;13.07;51.42
21980;BME280;11154;48.558;9.234;2022-12-10T00:08:42;96255.22;;;13.16;50.80
21980;BME280;11154;48.558;9.234;2022-12-10T00:10:43;96254.00;;;13.25;50.59
21980;BME280;11154;48.558;9.234;2022-12-10T00:12:45;96255.03;;;13.30;49.88
21980;BME280;11154;48.558;9.234;2022-12-10T00:14:48;96247.19;;;13.35;49.56
21980;BME280;11154;48.558;9.234;2022-12-10T00:16:50;96243.47;;;13.43;49.51
21980;BME280;11154;48.558;9.234;2022-12-10T00:18:52;96247.97;;;13.49;49.07
21980;BME280;11154;48.558;9.234;2022-12-10T00:20:54;96246.31;;;13.54;48.93
21980;BME280;11154;48.558;9.234;2022-12-10T00:22:56;96244.06;;;13.58;48.82
21980;BME280;11154;48.558;9.234;2022-12-10T00:24:57;96240.53;;;13.64;48.64
21980;BME280;11154;48.558;9.234;2022-12-10T00:26:59;96240.94;;;13.67;48.53
21980;BME280;11154;48.558;9.234;2022-12-10T00:29:02;96249.13;;;13.72;48.31
21980;BME280;11154;48.558;9.234;2022-12-10T00:31:07;96243.38;;;13.75;48.07
21980;BME280;11154;48.558;9.234;2022-12-10T00:33:09;96238.25;;;12.91;49.03
21980;BME280;11154;48.558;9.234;2022-12-10T00:35:11;96240.44;;;11.57;53.55
21980;BME280;11154;48.558;9.234;2022-12-10T00:37:12;96242.22;;;10.49;58.50
21980;BME280;11154;48.558;9.234;2022-12-10T00:39:16;96244.50;;;9.75;63.02
21980;BME280;11154;48.558;9.234;2022-12-10T00:41:19;96244.41;;;9.19;66.10
21980;BME280;11154;48.558;9.234;2022-12-10T00:43:21;96239.41;;;8.44;70.82
21980;BME280;11154;48.558;9.234;2022-12-10T00:45:23;96247.03;;;8.02;73.71
21980;BME280;11154;48.558;9.234;2022-12-10T00:47:26;96249.53;;;7.73;75.93
21980;BME280;11154;48.558;9.234;2022-12-10T00:49:28;96256.44;;;7.52;77.40
21980;BME280;11154;48.558;9.234;2022-12-10T00:51:29;96245.78;;;7.37;78.68
21980;BME280;11154;48.558;9.234;2022-12-10T00:53:33;96253.16;;;7.19;79.81
21980;BME280;11154;48.558;9.234;2022-12-10T00:55:35;96250.41;;;7.05;80.95
21980;BME280;11154;48.558;9.234;2022-12-10T00:57:37;96257.91;;;6.78;82.34
21980;BME280;11154;48.558;9.234;2022-12-10T00:59:38;96258.81;;;6.54;84.07
21980;BME280;11154;48.558;9.234;2022-12-10T01:01:42;96261.44;;;6.39;85.81
21980;BME280;11154;48.558;9.234;2022-12-10T01:03:45;96266.41;;;6.26;86.63
21980;BME280;11154;48.558;9.234;2022-12-10T01:05:47;96270.69;;;6.19;87.39
21980;BME280;11154;48.558;9.234;2022-12-10T01:07:50;96266.44;;;6.10;87.83
21980;BME280;11154;48.558;9.234;2022-12-10T01:09:52;96273.00;;;6.06;88.10
21980;BME280;11154;48.558;9.234;2022-12-10T01:11:55;96275.13;;;6.02;88.63
21980;BME280;11154;48.558;9.234;2022-12-10T01:13:58;96278.44;;;6.04;89.23
21980;BME280;11154;48.558;9.234;2022-12-10T01:16:01;96285.88;;;6.09;89.94
21980;BME280;11154;48.558;9.234;2022-12-10T01:18:03;96290.16;;;6.10;89.49
21980;BME280;11154;48.558;9.234;2022-12-10T01:20:07;96289.03;;;6.12;89.87
21980;BME280;11154;48.558;9.234;2022-12-10T01:22:08;96297.75;;;6.13;89.72
21980;BME280;11154;48.558;9.234;2022-12-10T01:24:10;96300.22;;;6.14;89.49
21980;BME280;11154;48.558;9.234;2022-12-10T01:26:14;96295.28;;;6.19;88.75
21980;BME280;11154;48.558;9.234;2022-12-10T01:28:16;96299.72;;;6.19;88.33
21980;BME280;11154;48.558;9.234;2022-12-10T01:30:18;96297.44;;;6.16;88.85
21980;BME280;11154;48.558;9.234;2022-12-10T01:32:19;96307.47;;;6.20;88.81
21980;BME280;11154;48.558;9.234;2022-12-10T01:34:21;96307.97;;;6.24;88.63
21980;BME280;11154;48.558;9.234;2022-12-10T01:36:27;96309.78;;;6.23;88.12
21980;BME280;11154;48.558;9.234;2022-12-10T01:38:29;96305.66;;;6.21;88.84
21980;BME280;11154;48.558;9.234;2022-12-10T01:40:37;96298.75;;;6.20;88.55
21980;BME280;11154;48.558;9.234;2022-12-10T01:42:39;96303.34;;;6.18;88.73
21980;BME280;11154;48.558;9.234;2022-12-10T01:45:02;96311.94;;;6.28;88.37
21980;BME280;11154;48.558;9.234;2022-12-10T01:47:04;96313.91;;;6.26;88.26
21980;BME280;11154;48.558;9.234;2022-12-10T01:49:07;96307.81;;;6.25;88.40
21980;BME280;11154;48.558;9.234;2022-12-10T01:51:10;96305.00;;;6.27;88.80
21980;BME280;11154;48.558;9.234;2022-12-10T01:53:13;96303.84;;;6.29;88.64
21980;BME280;11154;48.558;9.234;2022-12-10T01:55:35;96300.72;;;6.34;88.24
21980;BME280;11154;48.558;9.234;2022-12-10T01:57:38;96307.66;;;6.35;88.34
21980;BME280;11154;48.558;9.234;2022-12-10T01:59:41;96309.94;;;6.38;87.76
21980;BME280;11154;48.558;9.234;2022-12-10T02:01:52;96300.06;;;6.40;87.66
21980;BME280;11154;48.558;9.234;2022-12-10T02:04:04;96281.97;;;5.48;89.70
21980;BME280;11154;48.558;9.234;2022-12-10T02:06:18;96279.06;;;4.84;95.89
21980;BME280;11154;48.558;9.234;2022-12-10T02:08:27;96273.97;;;4.57;99.49
21980;BME280;11154;48.558;9.234;2022-12-10T02:10:49;96282.59;;;4.42;100.00
21980;BME280;11154;48.558;9.234;2022-12-10T02:13:01;96280.88;;;4.33;100.00
21980;BME280;11154;48.558;9.234;2022-12-10T02:15:10;96280.50;;;4.28;100.00
21980;BME280;11154;48.558;9.234;2022-12-10T02:17:16;96281.97;;;4.23;100.00
21980;BME280;11154;48.558;9.234;2022-12-10T02:19:25;96285.56;;;4.22;100.00
21980;BME280;11154;48.558;9.234;2022-12-10T02:21:34;96286.41;;;4.22;100.00
21980;BME280;11154;48.558;9.234;2022-12-10T02:23:41;96280.09;;;4.15;100.00
21980;BME280;11154;48.558;9.234;2022-12-10T02:25:48;96281.22;;;4.13;100.00
21980;BME280;11154;48.558;9.234;2022-12-10T02:27:57;96269.56;;;4.15;100.00
21980;BME280;11154;48.558;9.234;2022-12-10T02:30:05;96269.41;;;4.17;100.00
21980;BME280;11154;48.558;9.234;2022-12-10T02:32:09;96278.97;;;4.18;100.00
21980;BME280;11154;48.558;9.234;2022-12-10T02:34:13;96276.50;;;4.16;100.00
21980;BME280;11154;48.558;9.234;2022-12-10T02:36:17;96276.19;;;4.19;100.00
21980;BME280;11154;48.558;9.234;2022-12-10T02:38:26;96266.78;;;4.17;100.00
21980;BME280;11154;48.558;9.234;2022-12-10T02:40:32;96269.41;;;4.17;100.00
21980;BME280;11154;48.558;9.234;2022-12-10T02:42:38;96257.41;;;4.14;100.00
21980;BME280;11154;48.558;9.234;2022-12-10T02:44:43;96244.13;;;4.16;100.00
21980;BME280;11154;48.558;9.234;2022-12-10T02:46:49;96251.63;;;4.11;100.00
21980;BME280;11154;48.558;9.234;2022-12-10T02:48:52;96258.84;;;4.09;100.00
21980;BME280;11154;48.558;9.234;2022-12-10T02:50:54;96263.94;;;4.10;100.00
21980;BME280;11154;48.558;9.234;2022-12-10T02:52:56;96266.59;;;4.10;100.00
21980;BME280;11154;48.558;9.234;2022-12-10T02:54:57;96262.97;;;4.11;100.00
21980;BME280;11154;48.558;9.234;2022-12-10T02:57:03;96257.88;;;4.10;100.00
21980;BME280;11154;48.558;9.234;2022-12-10T02:59:14;96251.63;;;4.11;100.00
21980;BME280;11154;48.558;9.234;2022-12-10T03:01:26;96238.63;;;4.09;100.00
21980;BME280;11154;48.558;9.234;2022-12-10T03:03:40;96244.41;;;4.13;100.00
21980;BME280;11154;48.558;9.234;2022-12-10T03:05:48;96237.38;;;4.13;100.00
21980;BME280;11154;48.558;9.234;2022-12-10T03:07:57;96234.06;;;4.11;100.00
21980;BME280;11154;48.558;9.234;2022-12-10T03:10:03;96248.00;;;4.12;100.00
21980;BME280;11154;48.558;9.234;2022-12-10T03:12:11;96248.00;;;4.12;100.00
21980;BME280;11154;48.558;9.234;2022-12-10T03:14:22;96239.16;;;4.13;100.00
21980;BME280;11154;48.558;9.234;2022-12-10T03:16:29;96245.38;;;4.12;100.00
21980;BME280;11154;48.558;9.234;2022-12-10T03:18:35;96235.72;;;4.12;100.00
21980;BME280;11154;48.558;9.234;2022-12-10T03:20:42;96230.44;;;4.12;100.00
21980;BME280;11154;48.558;9.234;2022-12-10T03:22:46;96226.69;;;4.15;100.00
21980;BME280;11154;48.558;9.234;2022-12-10T03:24:49;96224.06;;;4.15;100.00
21980;BME280;11154;48.558;9.234;2022-12-10T03:26:52;96229.84;;;4.18;100.00
21980;BME280;11154;48.558;9.234;2022-12-10T03:28:57;96216.00;;;4.16;100.00
21980;BME280;11154;48.558;9.234;2022-12-10T03:31:01;96223.06;;;4.16;100.00
21980;BME280;11154;48.558;9.234;2022-12-10T03:33:04;96215.03;;;4.17;100.00
21980;BME280;11154;48.558;9.234;2022-12-10T03:35:09;96215.31;;;4.14;100.00
21980;BME280;11154;48.558;9.234;2022-12-10T03:37:12;96220.28;;;4.17;100.00
21980;BME280;11154;48.558;9.234;2022-12-10T03:39:14;96227.34;;;4.17;100.00
21980;BME280;11154;48.558;9.234;2022-12-10T03:41:16;96220.56;;;4.14;100.00
21980;BME280;11154;48.558;9.234;2022-12-10T03:43:18;96220.28;;;4.17;100.00
21980;BME280;11154;48.558;9.234;2022-12-10T03:45:19;96227.19;;;4.18;100.00
21980;BME280;11154;48.558;9.234;2022-12-10T03:47:22;96234.25;;;4.18;100.00
21980;BME280;11154;48.558;9.234;2022-12-10T03:49:24;96232.59;;;4.17;100.00
21980;BME280;11154;48.558;9.234;2022-12-10T03:51:28;96234.41;;;4.16;100.00
21980;BME280;11154;48.558;9.234;2022-12-10T03:53:29;96232.75;;;4.15;100.00
21980;BME280;11154;48.558;9.234;2022-12-10T03:55:31;96244.75;;;4.18;100.00
21980;BME280;11154;48.558;9.234;2022-12-10T03:57:33;96248.53;;;4.15;100.00
21980;BME280;11154;48.558;9.234;2022-12-10T03:59:35;96253.28;;;4.12;100.00
21980;BME280;11154;48.558;9.234;2022-12-10T04:01:37;96297.59;;;5.08;100.00
21980;BME280;11154;48.558;9.234;2022-12-10T04:03:40;96284.59;;;5.48;100.00
21980;BME280;11154;48.558;9.234;2022-12-10T04:05:42;96289.75;;;5.65;100.00
21980;BME280;11154;48.558;9.234;2022-12-10T04:07:45;96301.19;;;5.81;99.66
21980;BME280;11154;48.558;9.234;2022-12-10T04:09:47;96295.59;;;5.92;97.24
21980;BME280;11154;48.558;9.234;2022-12-10T04:11:48;96296.75;;;6.06;95.43
21980;BME280;11154;48.558;9.234;2022-12-10T04:13:50;96303.53;;;6.16;94.28
21980;BME280;11154;48.558;9.234;2022-12-10T04:16:09;96309.63;;;6.25;93.04
21980;BME280;11154;48.558;9.234;2022-12-10T04:18:28;96313.25;;;6.32;92.16
21980;BME280;11154;48.558;9.234;2022-12-10T04:20:30;96314.59;;;6.36;91.23
21980;BME280;11154;48.558;9.234;2022-12-10T04:22:51;96313.25;;;6.40;90.72
21980;BME280;11154;48.558;9.234;2022-12-10T04:25:10;96320.81;;;6.43;90.03
21980;BME280;11154;48.558;9.234;2022-12-10T04:27:31;96326.78;;;6.44;89.74
21980;BME280;11154;48.558;9.234;2022-12-10T04:29:34;96329.75;;;6.49;89.44
21980;BME280;11154;48.558;9.234;2022-12-10T04:31:35;96332.06;;;6.52;89.37
21980;BME280;11154;48.558;9.234;2022-12-10T04:33:37;96315.88;;;6.55;89.08
21980;BME280;11154;48.558;9.234;2022-12-10T04:35:38;96324.47;;;6.57;88.66
21980;BME280;11154;48.558;9.234;2022-12-10T04:37:40;96331.03;;;6.61;88.69
21980;BME280;11154;48.558;9.234;2022-12-10T04:39:43;96330.06;;;6.62;88.29
21980;BME280;11154;48.558;9.234;2022-12-10T04:41:47;96330.06;;;6.62;88.33
21980;BME280;11154;48.558;9.234;2022-12-10T04:43:48;96324.63;;;6.64;87.97
21980;BME280;11154;48.558;9.234;2022-12-10T04:45:50;96328.75;;;6.66;88.01
21980;BME280;11154;48.558;9.234;2022-12-10T04:47:52;96331.22;;;6.68;87.86
21980;BME280;11154;48.558;9.234;2022-12-10T04:49:53;96320.66;;;6.68;87.53
21980;BME280;11154;48.558;9.234;2022-12-10T04:51:55;96317.84;;;6.69;87.22
21980;BME280;11154;48.558;9.234;2022-12-10T04:53:56;96317.66;;;6.71;87.54
21980;BME280;11154;48.558;9.234;2022-12-10T04:55:59;96328.91;;;6.73;87.57
21980;BME280;11154;48.558;9.234;2022-12-10T04:58:02;96331.03;;;6.77;87.07
21980;BME280;11154;48.558;9.234;2022-12-10T05:00:04;96327.41;;;6.78;86.93
21980;BME280;11154;48.558;9.234;2022-12-10T05:02:06;96322.13;;;6.78;86.78
21980;BME280;11154;48.558;9.234;2022-12-10T05:04:11;96318.50;;;6.79;86.70
21980;BME280;11154;48.558;9.234;2022-12-10T05:06:14;96316.84;;;6.78;86.53
21980;BME280;11154;48.558;9.234;2022-12-10T05:08:16;96314.84;;;6.80;86.49
21980;BME280;11154;48.558;9.234;2022-12-10T05:10:17;96313.38;;;6.78;86.08
21980;BME280;11154;48.558;9.234;2022-12-10T05:12:20;96302.97;;;6.76;85.98
21980;BME280;11154;48.558;9.234;2022-12-10T05:14:22;96306.78;;;6.74;85.94
21980;BME280;11154;48.558;9.234;2022-12-10T05:16:26;96308.63;;;6.73;85.72
21980;BME280;11154;48.558;9.234;2022-12-10T05:18:28;96299.19;;;6.71;85.72
21980;BME280;11154;48.558;9.234;2022-12-10T05:20:30;96298.19;;;6.72;85.76
21980;BME280;11154;48.558;9.234;2022-12-10T05:22:31;96304.47;;;6.71;85.71
21980;BME280;11154;48.558;9.234;2022-12-10T05:24:51;96300.03;;;6.71;85.77
21980;BME280;11154;48.558;9.234;2022-12-10T05:26:52;96302.97;;;6.68;85.74
21980;BME280;11154;48.558;9.234;2022-12-10T05:28:56;96305.97;;;6.65;85.83
21980;BME280;11154;48.558;9.234;2022-12-10T05:30:58;96299.72;;;6.66;85.79
21980;BME280;11154;48.558;9.234;2022-12-10T05:33:00;96291.94;;;6.65;86.22
21980;BME280;11154;48.558;9.234;2022-12-10T05:35:02;96291.13;;;6.64;86.07
21980;BME280;11154;48.558;9.234;2022-12-10T05:37:04;96298.56;;;6.61;86.04
21980;BME280;11154;48.558;9.234;2022-12-10T05:39:06;96304.31;;;6.64;86.17
21980;BME280;11154;48.558;9.234;2022-12-10T05:41:10;96302.34;;;6.66;86.28
21980;BME280;11154;48.558;9.234;2022-12-10T05:43:13;96310.91;;;6.68;86.04
21980;BME280;11154;48.558;9.234;2022-12-10T05:45:16;96310.75;;;6.70;85.95
21980;BME280;11154;48.558;9.234;2022-12-10T05:47:17;96316.84;;;6.70;85.89
21980;BME280;11154;48.558;9.234;2022-12-10T05:49:19;96313.91;;;6.73;85.63
21980;BME280;11154;48.558;9.234;2022-12-10T05:51:22;96317.19;;;6.75;85.29
21980;BME280;11154;48.558;9.234;2022-12-10T05:53:24;96317.34;;;6.74;85.57
21980;BME280;11154;48.558;9.234;2022-12-10T05:55:26;96319.97;;;6.82;85.23
21980;BME280;11154;48.558;9.234;2022-12-10T05:57:29;96316.50;;;6.89;84.39
21980;BME280;11154;48.558;9.234;2022-12-10T05:59:30;96312.88;;;6.90;84.05
21980;BME280;11154;48.558;9.234;2022-12-10T06:01:34;96327.06;;;6.97;83.61
21980;BME280;11154;48.558;9.234;2022-12-10T06:03:36;96323.25;;;7.00;83.35
21980;BME280;11154;48.558;9.234;2022-12-10T06:05:38;96327.03;;;7.05;82.99
21980;BME280;11154;48.558;9.234;2022-12-10T06:07:40;96325.69;;;7.09;82.58
21980;BME280;11154;48.558;9.234;2022-12-10T06:09:42;96330.16;;;7.09;82.56
21980;BME280;11154;48.558;9.234;2022-12-10T06:11:44;96323.38;;;7.14;82.40
21980;BME280;11154;48.558;9.234;2022-12-10T06:13:45;96325.34;;;7.12;82.10
21980;BME280;11154;48.558;9.234;2022-12-10T06:15:47;96329.63;;;7.13;82.04
21980;BME280;11154;48.558;9.234;2022-12-10T06:17:50;96341.53;;;7.17;81.85
21980;BME280;11154;48.558;9.234;2022-12-10T06:19:52;96340.03;;;7.22;81.42
21980;BME280;11154;48.558;9.234;2022-12-10T06:21:54;96340.84;;;7.23;81.49
21980;BME280;11154;48.558;9.234;2022-12-10T06:23:55;96340.19;;;7.21;81.45
21980;BME280;11154;48.558;9.234;2022-12-10T06:25:57;96344.50;;;7.14;81.60
21980;BME280;11154;48.558;9.234;2022-12-10T06:27:59;96346.16;;;7.07;81.63
21980;BME280;11154;48.558;9.234;2022-12-10T06:30:00;96350.47;;;7.00;82.09
21980;BME280;11154;48.558;9.234;2022-12-10T06:32:02;96347.53;;;6.95;82.34
21980;BME280;11154;48.558;9.234;2022-12-10T06:34:05;96361.41;;;6.89;82.81
21980;BME280;11154;48.558;9.234;2022-12-10T06:36:09;96359.25;;;6.85;82.76
21980;BME280;11154;48.558;9.234;2022-12-10T06:38:11;96364.41;;;6.78;83.14
21980;BME280;11154;48.558;9.234;2022-12-10T06:40:12;96360.78;;;6.71;83.26
21980;BME280;11154;48.558;9.234;2022-12-10T06:42:14;96361.09;;;6.68;83.14
21980;BME280;11154;48.558;9.234;2022-12-10T06:44:16;96350.53;;;6.68;82.94
21980;BME280;11154;48.558;9.234;2022-12-10T06:46:19;96353.34;;;6.67;83.09
21980;BME280;11154;48.558;9.234;2022-12-10T06:48:21;96356.47;;;6.70;83.17
21980;BME280;11154;48.558;9.234;2022-12-10T06:50:24;96363.72;;;6.68;83.04
21980;BME280;11154;48.558;9.234;2022-12-10T06:52:26;96358.13;;;6.71;82.99
21980;BME280;11154;48.558;9.234;2022-12-10T06:54:29;96359.94;;;6.71;82.92
21980;BME280;11154;48.558;9.234;2022-12-10T06:56:30;96367.53;;;6.74;82.67
21980;BME280;11154;48.558;9.234;2022-12-10T06:58:33;96369.00;;;6.76;82.35
21980;BME280;11154;48.558;9.234;2022-12-10T07:00:35;96368.34;;;6.74;82.07
21980;BME280;11154;48.558;9.234;2022-12-10T07:02:37;96376.25;;;6.74;82.19
21980;BME280;11154;48.558;9.234;2022-12-10T07:04:39;96378.25;;;6.80;82.02
21980;BME280;11154;48.558;9.234;2022-12-10T07:06:42;96382.22;;;6.84;81.75
21980;BME280;11154;48.558;9.234;2022-12-10T07:08:44;96383.53;;;6.88;81.28
21980;BME280;11154;48.558;9.234;2022-12-10T07:10:45;96389.78;;;6.87;80.93
21980;BME280;11154;48.558;9.234;2022-12-10T07:12:47;96382.88;;;6.86;80.81
21980;BME280;11154;48.558;9.234;2022-12-10T07:14:49;96380.56;;;6.83;80.76
21980;BME280;11154;48.558;9.234;2022-12-10T07:16:50;96379.59;;;6.84;80.90
21980;BME280;11154;48.558;9.234;2022-12-10T07:18:53;96380.88;;;6.88;80.80
21980;BME280;11154;48.558;9.234;2022-12-10T07:20:55;96373.13;;;6.87;80.68
21980;BME280;11154;48.558;9.234;2022-12-10T07:22:58;96373.63;;;6.90;80.90
21980;BME280;11154;48.558;9.234;2022-12-10T07:24:59;96387.16;;;6.87;80.64
21980;BME280;11154;48.558;9.234;2022-12-10T07:27:04;96377.91;;;6.83;80.94
21980;BME280;11154;48.558;9.234;2022-12-10T07:29:07;96386.34;;;6.79;80.88
21980;BME280;11154;48.558;9.234;2022-12-10T07:31:10;96395.91;;;6.80;80.96
21980;BME280;11154;48.558;9.234;2022-12-10T07:33:12;96393.28;;;6.80;80.33
21980;BME280;11154;48.558;9.234;2022-12-10T07:35:13;96407.97;;;6.90;80.25
21980;BME280;11154;48.558;9.234;2022-12-10T07:37:15;96408.97;;;6.97;79.27
21980;BME280;11154;48.558;9.234;2022-12-10T07:39:18;96422.81;;;7.07;78.95
21980;BME280;11154;48.558;9.234;2022-12-10T07:41:21;96420.97;;;7.15;78.38
21980;BME280;11154;48.558;9.234;2022-12-10T07:43:23;96424.78;;;7.21;77.66
21980;BME280;11154;48.558;9.234;2022-12-10T07:45:24;96419.50;;;7.21;77.01
21980;BME280;11154;48.558;9.234;2022-12-10T07:47:26;96414.56;;;7.18;76.75
21980;BME280;11154;48.558;9.234;2022-12-10T07:49:28;96419.31;;;7.22;77.30
21980;BME280;11154;48.558;9.234;2022-12-10T07:51:30;96413.53;;;7.27;76.96
21980;BME280;11154;48.558;9.234;2022-12-10T07:53:32;96407.75;;;7.23;76.40
21980;BME280;11154;48.558;9.234;2022-12-10T07:55:35;96421.28;;;7.28;76.44
21980;BME280;11154;48.558;9.234;2022-12-10T07:57:37;96420.28;;;7.29;76.10
21980;BME280;11154;48.558;9.234;2022-12-10T07:59:39;96416.19;;;7.27;75.98
21980;BME280;11154;48.558;9.234;2022-12-10T08:01:41;96416.19;;;7.27;75.88
21980;BME280;11154;48.558;9.234;2022-12-10T08:03:43;96425.44;;;7.23;75.62
21980;BME280;11154;48.558;9.234;2022-12-10T08:05:44;96424.09;;;7.27;75.97
21980;BME280;11154;48.558;9.234;2022-12-10T08:07:46;96424.59;;;7.30;75.87
21980;BME280;11154;48.558;9.234;2022-12-10T08:09:48;96419.81;;;7.34;75.71
21980;BME280;11154;48.558;9.234;2022-12-10T08:11:52;96425.09;;;7.34;75.55
21980;BME280;11154;48.558;9.234;2022-12-10T08:13:54;96426.44;;;7.30;75.49
21980;BME280;11154;48.558;9.234;2022-12-10T08:16:00;96420.47;;;7.28;75.95
21980;BME280;11154;48.558;9.234;2022-12-10T08:18:02;96420.28;;;7.29;75.77
21980;BME280;11154;48.558;9.234;2022-12-10T08:20:04;96429.38;;;7.35;75.70
21980;BME280;11154;48.558;9.234;2022-12-10T08:22:06;96436.66;;;7.41;75.34
21980;BME280;11154;48.558;9.234;2022-12-10T08:24:08;96433.00;;;7.42;75.21
21980;BME280;11154;48.558;9.234;2022-12-10T08:26:12;96425.06;;;7.42;74.79
21980;BME280;11154;48.558;9.234;2022-12-10T08:28:15;96434.81;;;7.41;74.79
21980;BME280;11154;48.558;9.234;2022-12-10T08:30:17;96436.94;;;7.46;74.46
21980;BME280;11154;48.558;9.234;2022-12-10T08:32:18;96445.56;;;7.48;74.17
21980;BME280;11154;48.558;9.234;2022-12-10T08:34:20;96445.56;;;7.48;73.64
21980;BME280;11154;48.558;9.234;2022-12-10T08:36:22;96453.13;;;7.51;73.86
21980;BME280;11154;48.558;9.234;2022-12-10T08:38:23;96454.78;;;7.52;73.46
21980;BME280;11154;48.558;9.234;2022-12-10T08:40:25;96462.53;;;7.53;73.68
21980;BME280;11154;48.558;9.234;2022-12-10T08:42:27;96465.69;;;7.57;73.33
21980;BME280;11154;48.558;9.234;2022-12-10T08:44:30;96464.84;;;7.64;74.09
21980;BME280;11154;48.558;9.234;2022-12-10T08:46:31;96463.38;;;7.62;73.44
21980;BME280;11154;48.558;9.234;2022-12-10T08:48:33;96455.94;;;7.65;73.69
21980;BME280;11154;48.558;9.234;2022-12-10T08:50:35;96442.53;;;7.67;74.08
21980;BME280;11154;48.558;9.234;2022-12-10T08:52:37;96442.53;;;7.67;73.27
21980;BME280;11154;48.558;9.234;2022-12-10T08:54:39;96443.69;;;7.64;73.80
21980;BME280;11154;48.558;9.234;2022-12-10T08:56:40;96444.38;;;7.58;73.67
21980;BME280;11154;48.558;9.234;2022-12-10T08:58:42;96442.22;;;7.62;73.83
21980;BME280;11154;48.558;9.234;2022-12-10T09:00:46;96451.81;;;7.63;73.42
21980;BME280;11154;48.558;9.234;2022-12-10T09:02:48;96458.72;;;7.64;73.37
21980;BME280;11154;48.558;9.234;2022-12-10T09:04:50;96463.19;;;7.63;72.99
21980;BME280;11154;48.558;9.234;2022-12-10T09:06:52;96465.34;;;7.68;73.52
21980;BME280;11154;48.558;9.234;2022-12-10T09:08:54;96466.66;;;7.72;73.66
21980;BME280;11154;48.558;9.234;2022-12-10T09:10:55;96470.94;;;7.73;72.97
21980;BME280;11154;48.558;9.234;2022-12-10T09:12:57;96468.63;;;7.70;72.42
21980;BME280;11154;48.558;9.234;2022-12-10T09:14:59;96467.31;;;7.66;72.68
21980;BME280;11154;48.558;9.234;2022-12-10T09:17:04;96467.69;;;7.63;72.60
21980;BME280;11154;48.558;9.234;2022-12-10T09:19:06;96468.00;;;7.60;72.62
21980;BME280;11154;48.558;9.234;2022-12-10T09:21:11;96476.59;;;7.62;72.88
21980;BME280;11154;48.558;9.234;2022-12-10T09:23:13;96478.25;;;7.63;72.59
21980;BME280;11154;48.558;9.234;2022-12-10T09:25:15;96475.94;;;7.68;72.79
21980;BME280;11154;48.558;9.234;2022-12-10T09:27:17;96478.00;;;7.96;73.04
21980;BME280;11154;48.558;9.234;2022-12-10T09:29:20;96488.06;;;8.00;71.71
21980;BME280;11154;48.558;9.234;2022-12-10T09:31:22;96495.63;;;8.11;71.19
21980;BME280;11154;48.558;9.234;2022-12-10T09:33:25;96504.72;;;8.17;71.40
21980;BME280;11154;48.558;9.234;2022-12-10T09:35:27;96500.59;;;8.14;70.91
21980;BME280;11154;48.558;9.234;2022-12-10T09:37:29;96496.63;;;8.18;70.46
21980;BME280;11154;48.558;9.234;2022-12-10T09:39:30;96500.88;;;8.27;69.84
21980;BME280;11154;48.558;9.234;2022-12-10T09:41:48;96506.31;;;8.34;69.08
21980;BME280;11154;48.558;9.234;2022-12-10T09:43:59;96505.97;;;8.37;69.24
21980;BME280;11154;48.558;9.234;2022-12-10T09:46:10;96501.00;;;8.42;69.90
21980;BME280;11154;48.558;9.234;2022-12-10T09:48:20;96507.13;;;8.34;69.24
21980;BME280;11154;48.558;9.234;2022-12-10T09:50:26;96494.28;;;8.23;68.95
21980;BME280;11154;48.558;9.234;2022-12-10T09:52:35;96504.91;;;8.15;69.44
21980;BME280;11154;48.558;9.234;2022-12-10T09:54:40;96499.09;;;8.12;68.90
21980;BME280;11154;48.558;9.234;2022-12-10T09:56:44;96497.63;;;8.09;69.37
21980;BME280;11154;48.558;9.234;2022-12-10T09:58:46;96492.00;;;8.04;69.39
21980;BME280;11154;48.558;9.234;2022-12-10T10:00:52;96496.16;;;7.99;69.26
21980;BME280;11154;48.558;9.234;2022-12-10T10:02:57;96486.41;;;7.99;69.55
21980;BME280;11154;48.558;9.234;2022-12-10T10:05:08;96498.28;;;8.19;69.70
21980;BME280;11154;48.558;9.234;2022-12-10T10:07:17;96493.69;;;9.19;67.18
21980;BME280;11154;48.558;9.234;2022-12-10T10:09:21;96496.72;;;9.52;65.28
21980;BME280;11154;48.558;9.234;2022-12-10T10:11:27;96492.16;;;9.75;63.84
21980;BME280;11154;48.558;9.234;2022-12-10T10:13:33;96487.28;;;10.01;62.00
21980;BME280;11154;48.558;9.234;2022-12-10T10:15:38;96489.28;;;10.28;60.01
21980;BME280;11154;48.558;9.234;2022-12-10T10:17:41;96483.28;;;10.55;58.67
21980;BME280;11154;48.558;9.234;2022-12-10T10:19:45;96482.19;;;10.84;57.41
21980;BME280;11154;48.558;9.234;2022-12-10T10:21:49;96487.16;;;11.08;55.83
21980;BME280;11154;48.558;9.234;2022-12-10T10:23:54;96486.16;;;11.30;54.52
21980;BME280;11154;48.558;9.234;2022-12-10T10:25:56;96482.00;;;11.48;53.69
21980;BME280;11154;48.558;9.234;2022-12-10T10:27:58;96469.66;;;11.62;52.42
21980;BME280;11154;48.558;9.234;2022-12-10T10:30:02;96474.25;;;11.74;52.41
21980;BME280;11154;48.558;9.234;2022-12-10T10:32:14;96475.78;;;11.90;51.85
21980;BME280;11154;48.558;9.234;2022-12-10T10:34:18;96487.53;;;12.02;50.77
21980;BME280;11154;48.558;9.234;2022-12-10T10:36:23;96504.81;;;12.12;50.27
21980;BME280;11154;48.558;9.234;2022-12-10T10:38:27;96504.47;;;12.22;49.48
21980;BME280;11154;48.558;9.234;2022-12-10T10:40:33;96510.72;;;12.35;48.97
21980;BME280;11154;48.558;9.234;2022-12-10T10:42:42;96506.84;;;12.44;48.23
21980;BME280;11154;48.558;9.234;2022-12-10T10:44:44;96506.50;;;12.53;47.86
21980;BME280;11154;48.558;9.234;2022-12-10T10:46:49;96518.84;;;12.61;47.71
21980;BME280;11154;48.558;9.234;2022-12-10T10:48:51;96515.19;;;12.68;47.21
21980;BME280;11154;48.558;9.234;2022-12-10T10:50:54;96515.63;;;12.78;46.66
21980;BME280;11154;48.558;9.234;2022-12-10T10:52:56;96517.09;;;12.81;46.21
21980;BME280;11154;48.558;9.234;2022-12-10T10:54:58;96515.88;;;12.83;45.93
21980;BME280;11154;48.558;9.234;2022-12-10T10:57:04;96517.34;;;12.92;46.04
21980;BME280;11154;48.558;9.234;2022-12-10T10:59:24;96513.72;;;12.99;45.47
21980;BME280;11154;48.558;9.234;2022-12-10T11:01:45;96508.97;;;13.01;45.60